• Join FlightAware (Why Join?)
  • Login
  • US Flag GB Flag 
08:32 EDT


 

Airport Tracker/Info


-or-


 

Live Flight TrackerFlight Track Log ✈ UAL1036 ✈ 26-Jun-2013 ✈ SEQM / UIO - KIAH

Flight Track Log - Related Links

Times and Time Zones

All times are in EDT time to prevent confusion due to time zone crossing. See the UAL1036 flight status page for this flight to view local times or setup timezone preferences in your user account.

Time Position Orientation Groundspeed Altitude Reporting Facility
EDT Latitude Longitude Course Direction KTS MPH feet Rate Location/Type
01:13 0.5470 -78.7591 339° North  Level FlightAware Approximate
01:14 0.6616 -78.8042 339° North  Level FlightAware Approximate
01:15 0.7763 -78.8494 339° North  Level FlightAware Approximate
01:16 0.8910 -78.8945 339° North  Level FlightAware Approximate
01:17 1.0057 -78.9397 339° North  Level FlightAware Approximate
01:18 1.1204 -78.9848 339° North  Level FlightAware Approximate
01:19 1.2346 -79.0298 339° North  Level FlightAware Approximate
01:20 1.3489 -79.0748 339° North  Level FlightAware Approximate
01:21 1.4632 -79.1198 339° North  Level FlightAware Approximate
01:22 1.5775 -79.1649 339° North  Level FlightAware Approximate
01:23 1.6751 -79.2041 334° Northwest  Level FlightAware Approximate
01:24 1.7856 -79.2576 334° Northwest  Level FlightAware Approximate
01:25 1.8962 -79.3111 334° Northwest  Level FlightAware Approximate
01:26 2.0068 -79.3646 334° Northwest  Level FlightAware Approximate
01:27 2.1173 -79.4181 334° Northwest  Level FlightAware Approximate
01:28 2.2279 -79.4716 334° Northwest  Level FlightAware Approximate
01:29 2.3384 -79.5251 334° Northwest  Level FlightAware Approximate
01:30 2.4490 -79.5787 334° Northwest  Level FlightAware Approximate
01:31 2.5595 -79.6322 334° Northwest  Level FlightAware Approximate
01:32 2.6701 -79.6858 334° Northwest  Level FlightAware Approximate
01:33 2.7806 -79.7393 334° Northwest  Level FlightAware Approximate
01:34 2.8912 -79.7929 334° Northwest  Level FlightAware Approximate
01:35 3.0017 -79.8465 334° Northwest  Level FlightAware Approximate
01:36 3.1123 -79.9001 334° Northwest  Level FlightAware Approximate
01:37 3.2228 -79.9537 334° Northwest  Level FlightAware Approximate
01:38 3.3333 -80.0073 334° Northwest  Level FlightAware Approximate
01:39 3.4439 -80.0609 334° Northwest  Level FlightAware Approximate
01:40 3.5544 -80.1146 334° Northwest  Level FlightAware Approximate
01:41 3.6649 -80.1682 334° Northwest  Level FlightAware Approximate
01:42 3.7754 -80.2219 334° Northwest  Level FlightAware Approximate
01:43 3.8861 -80.2754 334° Northwest  Level FlightAware Approximate
01:44 3.9968 -80.3286 334° Northwest  Level FlightAware Approximate
01:45 4.1075 -80.3818 334° Northwest  Level FlightAware Approximate
01:46 4.2183 -80.4351 334° Northwest  Level FlightAware Approximate
01:47 4.3290 -80.4884 334° Northwest  Level FlightAware Approximate
01:48 4.4397 -80.5417 334° Northwest  Level FlightAware Approximate
01:49 4.5504 -80.5950 334° Northwest  Level FlightAware Approximate
01:50 4.6611 -80.6483 334° Northwest  Level FlightAware Approximate
01:51 4.7719 -80.7017 334° Northwest  Level FlightAware Approximate
01:52 4.8826 -80.7550 334° Northwest  Level FlightAware Approximate
01:53 4.9945 -80.8090 334° Northwest  Level FlightAware Approximate
01:54 5.1063 -80.8629 334° Northwest  Level FlightAware Approximate
01:55 5.2182 -80.9169 334° Northwest  Level FlightAware Approximate
01:56 5.3301 -80.9709 334° Northwest  Level FlightAware Approximate
01:57 5.4420 -81.0250 334° Northwest  Level FlightAware Approximate
01:58 5.5538 -81.0790 334° Northwest  Level FlightAware Approximate
01:59 5.6657 -81.1331 334° Northwest  Level FlightAware Approximate
02:00 5.7775 -81.1872 334° Northwest  Level FlightAware Approximate
02:01 5.8894 -81.2413 334° Northwest  Level FlightAware Approximate
02:02 6.0012 -81.2954 334° Northwest  Level FlightAware Approximate
02:03 6.1131 -81.3496 334° Northwest  Level FlightAware Approximate
02:04 6.2249 -81.4037 334° Northwest  Level FlightAware Approximate
02:05 6.3367 -81.4579 334° Northwest  Level FlightAware Approximate
02:06 6.4486 -81.5122 334° Northwest  Level FlightAware Approximate
02:07 6.5604 -81.5664 334° Northwest  Level FlightAware Approximate
02:08 6.6722 -81.6207 334° Northwest  Level FlightAware Approximate
02:09 6.7840 -81.6750 334° Northwest  Level FlightAware Approximate
02:10 6.8958 -81.7293 334° Northwest  Level FlightAware Approximate
02:11 7.0076 -81.7837 334° Northwest  Level FlightAware Approximate
02:12 7.1194 -81.8380 334° Northwest  Level FlightAware Approximate
02:13 7.2312 -81.8924 334° Northwest  Level FlightAware Approximate
02:14 7.3429 -81.9469 334° Northwest  Level FlightAware Approximate
02:15 7.4547 -82.0013 334° Northwest  Level FlightAware Approximate
02:16 7.5665 -82.0558 334° Northwest  Level FlightAware Approximate
02:17 7.6782 -82.1103 334° Northwest  Level FlightAware Approximate
02:18 7.7899 -82.1648 334° Northwest  Level FlightAware Approximate
02:19 7.9017 -82.2194 334° Northwest  Level FlightAware Approximate
02:20 8.0134 -82.2740 334° Northwest  Level FlightAware Approximate
02:21 8.1251 -82.3287 334° Northwest  Level FlightAware Approximate
02:22 8.2369 -82.3833 334° Northwest  Level FlightAware Approximate
02:23 8.3486 -82.4380 334° Northwest  Level FlightAware Approximate
02:24 8.4603 -82.4927 334° Northwest  Level FlightAware Approximate
02:25 8.5720 -82.5475 334° Northwest  Level FlightAware Approximate
02:26 8.6837 -82.6023 334° Northwest  Level FlightAware Approximate
02:27 8.7954 -82.6571 334° Northwest  Level FlightAware Approximate
02:28 8.9070 -82.7119 334° Northwest  Level FlightAware Approximate
02:29 9.0184 -82.7675 334° Northwest  Level FlightAware Approximate
02:30 9.1297 -82.8231 334° Northwest  Level FlightAware Approximate
02:31 9.2410 -82.8788 334° Northwest  Level FlightAware Approximate
02:32 9.3524 -82.9343 334° Northwest  Level FlightAware Approximate
02:32 8.8120 -84.0190 334° Northwest 457 526 36,000  Level FlightAware
02:33 9.4639 -82.9895 334° Northwest  Level FlightAware Approximate
02:33 8.8950 -84.0590 335° Northwest 456 525 36,000  Level FlightAware
02:34 8.9700 -84.0940 335° Northwest 455 524 36,000  Level FlightAware
02:35 9.0580 -84.1360 335° Northwest 454 522 36,000  Level FlightAware
02:35 9.1360 -84.1730 335° Northwest 453 521 36,000  Level FlightAware
02:36 9.2160 -84.2110 335° Northwest 452 520 36,000  Level FlightAware
02:37 9.2970 -84.2500 335° Northwest 455 524 36,000  Level FlightAware
02:37 9.3690 -84.2840 335° Northwest 455 524 36,000  Level FlightAware
02:38 9.4620 -84.3280 335° Northwest 455 524 36,000  Level FlightAware
02:39 9.5380 -84.3650 334° Northwest 455 524 36,000  Level FlightAware
02:39 9.6140 -84.4010 335° Northwest 457 526 36,000  Level FlightAware
02:40 9.6980 -84.4410 335° Northwest 458 527 36,000  Level FlightAware
02:41 9.7720 -84.4760 335° Northwest 458 527 36,000  Level FlightAware
02:42 9.8590 -84.5180 335° Northwest 458 527 36,000  Level FlightAware
02:42 9.9450 -84.5590 335° Northwest 457 526 36,000  Level FlightAware
02:43 10.0210 -84.5950 335° Northwest 457 526 36,000  Level FlightAware
02:44 10.1060 -84.6360 335° Northwest 457 526 36,000  Level FlightAware
02:44 10.1810 -84.6720 335° Northwest 456 525 36,000  Level FlightAware
02:45 10.2660 -84.7130 335° Northwest 456 525 36,000  Level FlightAware
02:46 10.3470 -84.7520 335° Northwest 456 525 36,000  Level FlightAware
02:46 10.4230 -84.7880 335° Northwest 457 526 36,000  Level FlightAware
02:47 10.5070 -84.8290 334° Northwest 457 526 36,000  Level FlightAware
02:48 10.5850 -84.8660 335° Northwest 458 527 36,000  Level FlightAware
02:49 10.6690 -84.9060 335° Northwest 458 527 36,000  Level FlightAware
02:49 10.7460 -84.9430 335° Northwest 458 527 36,000  Level FlightAware
02:50 10.8280 -84.9830 334° Northwest 457 526 36,000  Level FlightAware
02:51 10.9070 -85.0210 335° Northwest 456 525 36,000  Level FlightAware
02:51 10.9830 -85.0570 335° Northwest 454 522 36,000  Level FlightAware
02:52 11.0670 -85.0980 334° Northwest 451 519 36,000  Level FlightAware
02:53 11.1430 -85.1340 335° Northwest 449 517 36,000 240 Level FlightAware
02:53 11.2250 -85.1740 334° Northwest 452 520 36,400 600 Climbing FlightAware
02:54 11.3090 -85.2150 334° Northwest 452 520 36,900 600 Climbing FlightAware
02:55 11.3740 -85.2460 335° Northwest 457 526 37,200 420 Climbing FlightAware
02:56 11.4650 -85.2900 335° Northwest 463 533 37,500 420 Climbing FlightAware
02:56 11.5720 -85.3420 335° Northwest 461 531 38,000 300 Climbing FlightAware
02:57 11.6370 -85.3740 334° Northwest 461 531 38,000  Level FlightAware
02:58 11.7150 -85.4130 334° Northwest 461 531 38,000  Level FlightAware
02:59 11.7750 -85.4430 334° Northwest 461 531 38,000  Level FlightAware
02:59 11.8340 -85.4720 334° Northwest 461 531 38,000  Level FlightAware
03:02 12.1033 -85.6022 335° Northwest  Level Estimated
03:03 12.2155 -85.6565 335° Northwest  Level Estimated
03:03 12.1870 -85.6480 335° Northwest 461 531 38,000  Level FlightAware
03:03 12.2460 -85.6780 334° Northwest 461 531 38,000  Level FlightAware
03:04 12.3240 -85.7170 334° Northwest 461 531 38,000  Level FlightAware
03:05 12.3830 -85.7460 334° Northwest 461 531 38,000  Level FlightAware
03:06 12.4630 -85.7860 334° Northwest 461 531 38,000  Level FlightAware
03:06 12.5210 -85.8150 334° Northwest 461 531 38,000  Level FlightAware
03:09 12.7865 -85.9439 335° Northwest  Level Estimated
03:10 12.8986 -85.9985 335° Northwest  Level Estimated
03:11 13.0108 -86.0531 335° Northwest  Level Estimated
03:12 13.1229 -86.1078 335° Northwest  Level Estimated
03:13 13.2350 -86.1625 335° Northwest  Level Estimated
03:14 13.3471 -86.2172 335° Northwest  Level Estimated
03:15 13.4592 -86.2720 335° Northwest  Level Estimated
03:16 13.5713 -86.3269 335° Northwest  Level Estimated
03:17 13.6834 -86.3818 335° Northwest  Level Estimated
03:18 13.7954 -86.4368 335° Northwest  Level Estimated
03:19 13.9075 -86.4918 335° Northwest  Level Estimated
03:20 14.0195 -86.5469 335° Northwest  Level Estimated
03:21 14.1315 -86.6020 334° Northwest  Level Estimated
03:22 14.2435 -86.6572 334° Northwest  Level Estimated
03:23 14.3555 -86.7124 334° Northwest  Level Estimated
03:24 14.4675 -86.7677 334° Northwest  Level Estimated
03:25 14.5795 -86.8231 334° Northwest  Level Estimated
03:26 14.6914 -86.8785 334° Northwest  Level Estimated
03:27 14.8034 -86.9339 334° Northwest  Level Estimated
03:28 14.9141 -86.9889 334° Northwest  Level Estimated
03:29 15.0248 -87.0439 334° Northwest  Level Estimated
03:30 15.1356 -87.0989 334° Northwest  Level Estimated
03:31 15.2463 -87.1540 334° Northwest  Level Estimated
03:32 15.3570 -87.2092 334° Northwest  Level Estimated
03:33 15.4677 -87.2644 334° Northwest  Level Estimated
03:34 15.5783 -87.3197 334° Northwest  Level Estimated
03:35 15.6890 -87.3750 334° Northwest  Level Estimated
03:36 15.7996 -87.4304 334° Northwest  Level Estimated
03:37 15.9102 -87.4859 334° Northwest  Level Estimated
03:38 16.0208 -87.5414 334° Northwest  Level Estimated
03:39 16.1314 -87.5970 334° Northwest  Level Estimated
03:40 16.2420 -87.6526 334° Northwest  Level Estimated
03:41 16.3526 -87.7083 334° Northwest  Level Estimated
03:42 16.4631 -87.7641 334° Northwest  Level Estimated
03:43 16.5737 -87.8199 334° Northwest  Level Estimated
03:44 16.6842 -87.8758 334° Northwest  Level Estimated
03:45 16.7947 -87.9317 334° Northwest  Level Estimated
03:46 16.9052 -87.9878 334° Northwest  Level Estimated
03:47 17.0157 -88.0439 334° Northwest  Level Estimated
03:48 17.1261 -88.1000 334° Northwest  Level Estimated
03:49 17.2362 -88.1560 334° Northwest  Level Estimated
03:50 17.3462 -88.2121 334° Northwest  Level Estimated
03:51 17.4562 -88.2683 334° Northwest  Level Estimated
03:52 17.5662 -88.3245 334° Northwest  Level Estimated
03:53 17.6762 -88.3808 334° Northwest  Level Estimated
03:54 17.7862 -88.4372 334° Northwest  Level Estimated
03:55 17.8962 -88.4936 334° Northwest  Level Estimated
03:56 18.0061 -88.5501 334° Northwest  Level Estimated
03:57 18.1161 -88.6067 334° Northwest  Level Estimated
03:57 18.5410 -88.4670 334° Northwest 454 522 38,000  Level FlightAware
03:58 18.2260 -88.6633 334° Northwest  Level Estimated
03:58 18.6020 -88.4800 349° North 454 522 38,000  Level FlightAware
03:59 18.6860 -88.4990 348° North 454 522 38,000  Level FlightAware
04:00 18.8390 -88.5330 348° North 466 536 38,000  Level FlightAware
04:00 18.9270 -88.5520 348° North 466 536 38,000  Level FlightAware
04:01 18.9910 -88.5670 348° North 466 536 38,000  Level FlightAware
04:02 19.1150 -88.5940 348° North 467 537 38,000  Level FlightAware
04:03 19.2360 -88.6210 348° North 466 536 38,000  Level FlightAware
04:03 19.3140 -88.6390 348° North 464 534 38,000  Level FlightAware
04:04 19.3970 -88.6580 348° North 463 533 38,000  Level FlightAware
04:05 19.4810 -88.6770 348° North 462 532 38,000  Level FlightAware
04:05 19.5890 -88.7010 348° North 460 529 38,000  Level FlightAware
04:06 19.6760 -88.7200 348° North 461 531 38,000  Level FlightAware
04:07 19.7630 -88.7400 348° North 464 534 38,000  Level FlightAware
04:08 19.8610 -88.7620 348° North 466 536 38,000  Level FlightAware
04:09 19.9750 -88.7880 348° North 465 535 38,000  Level FlightAware
04:09 20.0610 -88.8070 348° North 465 535 38,000  Level FlightAware
04:10 20.1530 -88.8280 348° North 464 534 38,000  Level FlightAware
04:11 20.2320 -88.8460 348° North 462 532 38,000  Level FlightAware
04:11 20.3280 -88.8680 348° North 461 531 38,000  Level FlightAware
04:12 20.4130 -88.8870 348° North 461 531 38,000  Level FlightAware
04:13 20.5090 -88.9090 348° North 463 533 38,000  Level FlightAware
04:13 20.5930 -88.9280 348° North 464 534 38,000  Level FlightAware
04:14 20.6850 -88.9490 348° North 464 534 38,000  Level FlightAware
04:16 20.9250 -89.0040 348° North 466 536 38,000  Level FlightAware
04:17 21.0190 -89.0260 348° North 465 535 38,000  Level FlightAware
04:18 21.1120 -89.0470 348° North 465 535 38,000  Level FlightAware
04:18 21.2010 -89.0670 348° North 464 534 38,000  Level FlightAware
04:19 21.2830 -89.0860 348° North 462 532 38,000  Level FlightAware
04:20 21.4040 -89.1140 348° North 462 532 38,000  Level FlightAware
04:21 21.5230 -89.1410 348° North 464 534 38,000  Level FlightAware
04:21 21.6010 -89.1590 348° North 465 535 38,000  Level FlightAware
04:22 21.7170 -89.1870 347° North 466 536 38,000  Level FlightAware
04:23 21.8140 -89.2080 349° North 467 537 38,000  Level FlightAware
04:24 21.9160 -89.2330 347° North 467 537 38,000  Level FlightAware
04:26 22.1010 -89.2760 348° North 468 539 38,000  Level FlightAware
04:26 22.1760 -89.2930 348° North 468 539 38,000  Level FlightAware
04:27 22.2560 -89.3120 348° North 468 539 38,000  Level FlightAware
04:28 22.3420 -89.3340 347° North 468 539 38,000  Level FlightAware
04:28 22.4140 -89.3510 348° North 468 539 38,000  Level FlightAware
04:29 22.5000 -89.3730 347° North 468 539 38,000  Level FlightAware
04:29 22.5430 -89.3840 347° North 468 539 38,000  Level FlightAware
04:31 22.7370 -89.4320 347° North 468 539 38,000  Level FlightAware
04:32 22.8030 -89.4490 347° North 468 539 38,000  Level FlightAware
04:33 22.8890 -89.4700 347° North 468 539 38,000  Level FlightAware
04:33 22.9520 -89.4860 347° North 468 539 38,000  Level FlightAware
04:34 23.0400 -89.5080 347° North 468 539 38,000  Level FlightAware
04:35 23.1040 -89.5240 347° North 468 539 38,000  Level FlightAware
04:35 23.1890 -89.5450 347° North 468 539 38,000  Level FlightAware
04:36 23.2550 -89.5620 347° North 468 539 38,000  Level FlightAware
04:39 23.5517 -89.6271 349° North  Level FlightAware Approximate
04:40 23.6731 -89.6538 349° North  Level FlightAware Approximate
04:41 23.7945 -89.6805 349° North  Level FlightAware Approximate
04:42 23.9159 -89.7073 349° North  Level FlightAware Approximate
04:43 24.0373 -89.7342 349° North  Level FlightAware Approximate
04:44 24.1586 -89.7611 349° North  Level FlightAware Approximate
04:45 24.2800 -89.7881 349° North  Level FlightAware Approximate
04:46 24.4014 -89.8151 349° North  Level FlightAware Approximate
04:47 24.5175 -89.8636 325° Northwest  Level FlightAware Approximate
04:48 24.6188 -89.9420 325° Northwest  Level FlightAware Approximate
04:49 24.7200 -90.0205 325° Northwest  Level FlightAware Approximate
04:50 24.8211 -90.0992 325° Northwest  Level FlightAware Approximate
04:51 24.9223 -90.1780 325° Northwest  Level FlightAware Approximate
04:52 25.0233 -90.2569 325° Northwest  Level FlightAware Approximate
04:53 25.1244 -90.3360 325° Northwest  Level FlightAware Approximate
04:54 25.2254 -90.4152 325° Northwest  Level FlightAware Approximate
04:55 25.3263 -90.4945 325° Northwest  Level FlightAware Approximate
04:56 25.4282 -90.5724 325° Northwest  Level FlightAware Approximate
04:57 25.5301 -90.6503 325° Northwest  Level FlightAware Approximate
04:58 25.6320 -90.7284 325° Northwest  Level FlightAware Approximate
04:59 25.7338 -90.8066 325° Northwest  Level FlightAware Approximate
05:00 25.8356 -90.8849 325° Northwest  Level FlightAware Approximate
05:01 25.9373 -90.9633 325° Northwest  Level FlightAware Approximate
05:02 26.0390 -91.0419 325° Northwest  Level FlightAware Approximate
05:03 26.1407 -91.1207 325° Northwest  Level FlightAware Approximate
05:04 26.2423 -91.1996 325° Northwest  Level FlightAware Approximate
05:05 26.3439 -91.2786 325° Northwest  Level FlightAware Approximate
05:06 26.4450 -91.3584 325° Northwest  Level FlightAware Approximate
05:07 26.5461 -91.4383 325° Northwest  Level FlightAware Approximate
05:08 26.6471 -91.5184 325° Northwest  Level FlightAware Approximate
05:09 26.7481 -91.5987 325° Northwest  Level FlightAware Approximate
05:09 27.0602 -91.8822 325° Northwest 438 504 38,000  Level FlightAware ADS-B
05:10 26.8490 -91.6791 325° Northwest  Level FlightAware Approximate
05:10 27.1269 -91.9508 318° Northwest 439 505 38,000  Level FlightAware ADS-B
05:11 27.1811 -92.0072 318° Northwest 438 504 37,900  Descending Houston Center
05:16 27.6988 -92.5433 318° Northwest 443 510 38,000  Climbing FlightAware ADS-B
05:17 27.7450 -92.5914 317° Northwest 442 509 38,000  Level FlightAware ADS-B
05:17 27.7939 -92.6426 317° Northwest 442 509 38,000  Level FlightAware ADS-B
05:19 27.9008 -92.7547 317° Northwest 443 510 38,000  Level FlightAware ADS-B
05:20 27.9900 -92.8484 317° Northwest 443 510 38,000 -60 Level FlightAware ADS-B
05:21 28.1017 -92.9694 317° Northwest 443 510 37,900 -240 Descending Houston Center
05:22 28.1922 -93.0631 318° Northwest 441 507 37,500 -720 Descending Houston Center
05:23 28.2822 -93.1586 317° Northwest 443 510 36,500 -900 Descending Houston Center
05:24 28.3667 -93.2478 317° Northwest 444 511 35,700 -960 Descending Houston Center
05:29 28.8620 -93.7760 317° Northwest 452 520 30,500 -600 Descending FlightAware
05:33 29.1490 -94.0940 316° Northwest 452 520 30,500 -1,860 Level FlightAware
05:33 29.2123 -94.1555 320° Northwest 408 470 23,200 -11,220 Descending FlightAware ADS-B
05:34 29.2530 -94.1999 316° Northwest 401 461 22,100 -2,100 Descending FlightAware ADS-B
05:34 29.2935 -94.2442 316° Northwest 395 455 21,100 -2,040 Descending FlightAware ADS-B
05:35 29.3337 -94.2879 317° Northwest 387 445 20,000 -2,100 Descending FlightAware ADS-B
05:35 29.3729 -94.3305 317° Northwest 381 438 19,000 -2,040 Descending FlightAware ADS-B
05:36 29.4109 -94.3720 316° Northwest 373 429 18,000 -1,980 Descending FlightAware ADS-B
05:36 29.4485 -94.4133 316° Northwest 368 423 17,000 -1,980 Descending FlightAware ADS-B
05:37 29.4856 -94.4540 316° Northwest 365 420 16,000 -2,040 Descending FlightAware ADS-B
05:37 29.5222 -94.4939 317° Northwest 361 415 15,000 -2,040 Descending FlightAware ADS-B
05:38 29.5583 -94.5335 316° Northwest 356 410 14,000 -2,040 Descending FlightAware ADS-B
05:38 29.5938 -94.5725 316° Northwest 351 404 13,000 -1,920 Descending FlightAware ADS-B
05:39 29.6288 -94.6112 316° Northwest 347 399 12,100 -1,920 Descending FlightAware ADS-B
05:39 29.6638 -94.6496 316° Northwest 342 394 11,100 -1,800 Descending FlightAware ADS-B
05:40 29.6980 -94.6873 316° Northwest 334 384 10,300 -1,140 Descending FlightAware ADS-B
05:40 29.7283 -94.7208 316° Northwest 312 359 10,000 -720 Descending FlightAware ADS-B
05:41 29.7438 -94.7380 316° Northwest 301 346 9,800 -1,020 Descending FlightAware ADS-B
05:41 29.7591 -94.7550 316° Northwest 298 343 9,500 -1,380 Descending FlightAware ADS-B
05:41 29.7744 -94.7719 316° Northwest 297 342 9,100 -1,620 Descending FlightAware ADS-B
05:41 29.7893 -94.7883 316° Northwest 295 339 8,700 -1,620 Descending FlightAware ADS-B
05:42 29.8042 -94.8048 316° Northwest 293 337 8,300 -1,380 Descending FlightAware ADS-B
05:42 29.8191 -94.8213 316° Northwest 292 336 8,000 -1,380 Descending FlightAware ADS-B
05:42 29.8339 -94.8376 316° Northwest 291 335 7,600 -1,620 Descending FlightAware ADS-B
05:42 29.8488 -94.8542 316° Northwest 289 333 7,200 -1,380 Descending FlightAware ADS-B
05:43 29.8634 -94.8705 316° Northwest 288 331 6,900 -1,380 Descending FlightAware ADS-B
05:43 29.8780 -94.8865 316° Northwest 286 329 6,500 -1,440 Descending FlightAware ADS-B
05:43 29.8922 -94.9022 316° Northwest 285 328 6,200 -1,440 Descending FlightAware ADS-B
05:43 29.9064 -94.9179 316° Northwest 284 327 5,800 -1,440 Descending FlightAware ADS-B
05:44 29.9205 -94.9336 316° Northwest 283 326 5,500 -1,440 Descending FlightAware ADS-B
05:44 29.9348 -94.9494 316° Northwest 282 325 5,100 -1,440 Descending FlightAware ADS-B
05:44 29.9489 -94.9651 316° Northwest 279 321 4,800 -840 Descending FlightAware ADS-B
05:44 29.9623 -94.9800 316° Northwest 270 311 4,700 -600 Descending FlightAware ADS-B
05:44 29.9676 -94.9860 316° Northwest 266 306 4,600 -600 Descending FlightAware ADS-B
05:45 29.9702 -94.9894 311° West 263 303 4,600  Level FlightAware ADS-B
05:45 29.9729 -94.9941 304° West 258 297 4,600 -900 Level FlightAware ADS-B
05:45 29.9747 -94.9983 296° West 253 291 4,500 -900 Descending FlightAware ADS-B
05:45 29.9760 -95.0025 290° West 249 287 4,500  Level FlightAware ADS-B
05:45 29.9770 -95.0078 282° West 244 281 4,500 -780 Level FlightAware ADS-B
05:45 29.9774 -95.0126 275° West 240 276 4,400 -900 Descending FlightAware ADS-B
05:45 29.9775 -95.0165 272° West 238 274 4,400 -600 Level FlightAware ADS-B
05:45 29.9773 -95.0272 269° West 233 268 4,300 -360 Descending FlightAware ADS-B
05:45 29.9772 -95.0395 269° West 226 260 4,300 -300 Level FlightAware ADS-B
05:45 29.9774 -95.0538 271° West 215 247 4,200 -660 Descending FlightAware ADS-B
05:46 29.9776 -95.0707 271° West 208 239 4,000 -1,020 Descending FlightAware ADS-B
05:46 29.9777 -95.0876 270° West 205 236 3,700 -1,140 Descending FlightAware ADS-B
05:46 29.9777 -95.1057 270° West 199 229 3,400 -1,140 Descending FlightAware ADS-B
05:46 29.9776 -95.1215 270° West 193 222 3,100 -1,200 Descending FlightAware ADS-B
05:47 29.9776 -95.1370 270° West 188 216 2,800 -1,020 Descending FlightAware ADS-B
05:47 29.9776 -95.1518 270° West 184 212 2,600 -1,020 Descending FlightAware ADS-B
05:47 29.9776 -95.1665 270° West 179 206 2,300 -960 Descending FlightAware ADS-B
05:47 29.9775 -95.1757 269° West 176 203 2,200 -720 Descending FlightAware ADS-B
05:48 29.9775 -95.1894 270° West 167 192 2,000 -960 Descending FlightAware ADS-B
05:48 29.9775 -95.2089 270° West 153 176 1,600 -960 Descending FlightAware ADS-B
05:48 29.9775 -95.2214 270° West 147 169 1,400 -660 Descending FlightAware ADS-B
05:48 29.9774 -95.2313 269° West 146 168 1,300 -660 Descending FlightAware ADS-B
05:49 29.9774 -95.2431 270° West 146 168 1,100 -840 Descending FlightAware ADS-B
05:49 29.9776 -95.2490 272° West 147 169 1,000 -960 Descending FlightAware ADS-B
05:49 29.9778 -95.2539 273° West 147 169 900 -840 Descending FlightAware ADS-B
05:49 29.9779 -95.2605 271° West 146 168 800 -840 Descending FlightAware ADS-B
05:49 29.9778 -95.2714 269° West 146 168 600 -960 Descending FlightAware ADS-B
05:50 29.9776 -95.2804 269° West 146 168 400 -780 Descending FlightAware ADS-B
05:50 29.9776 -95.2905 270° West 148 170 300 -720 Descending FlightAware ADS-B
05:50 29.9776 -95.3012 270° West 151 174 100 -900 Descending FlightAware ADS-B